CA-0318 weather

CLOSED Round Hill Airport
Alberta, Canada

Public forecast

Using degrees Celsius for public forecast. Weather courtesy of forecast.io.

Closest aviation weather report (METAR) to Round Hill Airport

Closest report is CFB Cold Lake, 79.7 nm (147.7 km) SE. Retrieved 2020/06/01 03:12 UTC (12 minutes ago):

CYOD 010312Z 14003KT 6SM -TSRA BKN040CB BKN075 17/14 A2933 RMK CB6AC2 CB OVRHD MOVG NE OCNL LTGCCCG N QUAD LTNG DTCTRS REP STRIKES 4 NM N VIS LWR N PRESFR SLP935

Closest aviation forecast (TAF) to Round Hill Airport

Closest forecast is CFB Cold Lake, 79.7 nm (147.7 km) SE. Retrieved 2020-06-01 00:35 UTC (3 hours ago):

TAF CYOD 312330Z 0100/0124 14010G20KT P6SM SCT050 OVC100 TEMPO 0100/0109 P6SM -SHRA BKN050 PROB30 0102/0109 VRB20G30KT 4SM TSRA OVC050CB BECMG 0106/0108 27030G45KT FM011500 28025G35KT P6SM OVC030 FM011800 29015G25KT P6SM BKN050 RMK NXT FCST BY 010600Z